sensor_id;sensor_type;location;lat;lon;timestamp;pressure;altitude;pressure_sealevel;temperature;humidity
19759;BME280;10038;42.662;23.278;2023-04-01T00:00:45;71973.19;;;11.96;70.91
19759;BME280;10038;42.662;23.278;2023-04-01T00:03:12;71975.16;;;11.93;71.11
19759;BME280;10038;42.662;23.278;2023-04-01T00:05:39;71972.84;;;11.91;71.16
19759;BME280;10038;42.662;23.278;2023-04-01T00:08:06;71980.38;;;11.97;71.26
19759;BME280;10038;42.662;23.278;2023-04-01T00:10:33;71989.63;;;12.05;71.23
19759;BME280;10038;42.662;23.278;2023-04-01T00:13:02;71989.03;;;12.05;71.51
19759;BME280;10038;42.662;23.278;2023-04-01T00:15:29;71985.56;;;12.02;71.89
19759;BME280;10038;42.662;23.278;2023-04-01T00:17:56;71984.19;;;12.05;71.67
19759;BME280;10038;42.662;23.278;2023-04-01T00:20:24;71993.28;;;12.11;71.76
19759;BME280;10038;42.662;23.278;2023-04-01T00:22:51;72010.84;;;12.21;71.90
19759;BME280;10038;42.662;23.278;2023-04-01T00:25:18;71998.72;;;12.11;72.13
19759;BME280;10038;42.662;23.278;2023-04-01T00:27:45;71998.13;;;12.10;72.50
19759;BME280;10038;42.662;23.278;2023-04-01T00:30:14;71988.81;;;12.09;72.45
19759;BME280;10038;42.662;23.278;2023-04-01T00:32:41;71972.25;;;11.90;73.49
19759;BME280;10038;42.662;23.278;2023-04-01T00:35:08;71969.38;;;11.88;73.17
19759;BME280;10038;42.662;23.278;2023-04-01T00:37:36;71973.09;;;11.86;73.70
19759;BME280;10038;42.662;23.278;2023-04-01T00:40:07;71947.59;;;11.64;74.97
19759;BME280;10038;42.662;23.278;2023-04-01T00:42:34;71946.22;;;11.67;74.96
19759;BME280;10038;42.662;23.278;2023-04-01T00:45:25;71936.94;;;11.59;75.24
19759;BME280;10038;42.662;23.278;2023-04-01T00:47:54;71936.59;;;11.54;75.79
19759;BME280;10038;42.662;23.278;2023-04-01T00:50:22;71921.94;;;11.46;76.02
19759;BME280;10038;42.662;23.278;2023-04-01T00:52:52;71919.03;;;11.44;75.50
19759;BME280;10038;42.662;23.278;2023-04-01T00:55:20;71886.66;;;11.15;75.20
19759;BME280;10038;42.662;23.278;2023-04-01T00:57:48;71910.78;;;11.34;74.05
19759;BME280;10038;42.662;23.278;2023-04-01T01:00:17;71899.78;;;11.24;74.98
19759;BME280;10038;42.662;23.278;2023-04-01T01:02:46;71902.50;;;11.24;75.11
19759;BME280;10038;42.662;23.278;2023-04-01T01:05:17;71883.00;;;11.10;75.89
19759;BME280;10038;42.662;23.278;2023-04-01T01:07:54;71879.94;;;11.05;75.79
19759;BME280;10038;42.662;23.278;2023-04-01T01:10:30;71879.94;;;11.05;75.80
19759;BME280;10038;42.662;23.278;2023-04-01T01:13:04;71868.72;;;11.00;75.70
19759;BME280;10038;42.662;23.278;2023-04-01T01:15:35;71878.56;;;11.08;75.40
19759;BME280;10038;42.662;23.278;2023-04-01T01:18:09;71839.47;;;10.70;75.84
19759;BME280;10038;42.662;23.278;2023-04-01T01:21:05;71842.72;;;10.77;75.86
19759;BME280;10038;42.662;23.278;2023-04-01T01:24:02;71859.91;;;10.90;75.63
19759;BME280;10038;42.662;23.278;2023-04-01T01:26:51;71851.03;;;10.80;74.96
19759;BME280;10038;42.662;23.278;2023-04-01T01:29:44;71863.53;;;10.95;74.10
19759;BME280;10038;42.662;23.278;2023-04-01T01:32:24;71875.09;;;11.05;73.48
19759;BME280;10038;42.662;23.278;2023-04-01T01:35:06;71876.84;;;11.07;73.37
19759;BME280;10038;42.662;23.278;2023-04-01T01:37:34;71879.16;;;11.09;72.81
19759;BME280;10038;42.662;23.278;2023-04-01T01:40:04;71888.03;;;11.12;72.70
19759;BME280;10038;42.662;23.278;2023-04-01T01:42:35;71858.72;;;10.89;72.54
19759;BME280;10038;42.662;23.278;2023-04-01T01:45:04;71903.06;;;11.25;71.36
19759;BME280;10038;42.662;23.278;2023-04-01T01:47:33;71893.59;;;11.21;70.96
19759;BME280;10038;42.662;23.278;2023-04-01T01:50:02;71868.72;;;11.00;71.06
19759;BME280;10038;42.662;23.278;2023-04-01T01:52:31;71891.88;;;11.20;71.18
19759;BME280;10038;42.662;23.278;2023-04-01T01:54:58;71893.81;;;11.17;71.78
19759;BME280;10038;42.662;23.278;2023-04-01T01:57:28;71859.13;;;10.87;72.01
19759;BME280;10038;42.662;23.278;2023-04-01T02:00:00;71920.41;;;11.40;69.29
19759;BME280;10038;42.662;23.278;2023-04-01T02:02:28;71947.38;;;11.68;66.61
19759;BME280;10038;42.662;23.278;2023-04-01T02:04:57;71886.09;;;11.15;67.26
19759;BME280;10038;42.662;23.278;2023-04-01T02:07:28;71918.06;;;11.45;67.01
19759;BME280;10038;42.662;23.278;2023-04-01T02:09:59;71954.34;;;11.74;66.43
19759;BME280;10038;42.662;23.278;2023-04-01T02:12:27;71961.13;;;11.78;66.38
19759;BME280;10038;42.662;23.278;2023-04-01T02:14:57;71935.81;;;11.58;66.30
19759;BME280;10038;42.662;23.278;2023-04-01T02:17:27;71971.13;;;11.89;66.38
19759;BME280;10038;42.662;23.278;2023-04-01T02:19:58;71971.69;;;11.90;66.88
19759;BME280;10038;42.662;23.278;2023-04-01T02:22:28;71965.91;;;11.84;65.80
19759;BME280;10038;42.662;23.278;2023-04-01T02:25:00;71969.72;;;11.93;65.84
19759;BME280;10038;42.662;23.278;2023-04-01T02:27:28;71953.16;;;11.73;67.23
19759;BME280;10038;42.662;23.278;2023-04-01T02:29:55;71944.47;;;11.66;67.58
19759;BME280;10038;42.662;23.278;2023-04-01T02:32:22;71955.50;;;11.75;67.27
19759;BME280;10038;42.662;23.278;2023-04-01T02:34:49;71970.53;;;11.89;66.89
19759;BME280;10038;42.662;23.278;2023-04-01T02:37:16;71956.66;;;11.76;67.44
19759;BME280;10038;42.662;23.278;2023-04-01T02:39:43;71957.00;;;11.81;67.74
19759;BME280;10038;42.662;23.278;2023-04-01T02:42:13;71942.38;;;11.59;67.99
19759;BME280;10038;42.662;23.278;2023-04-01T02:44:40;71922.09;;;11.49;68.73
19759;BME280;10038;42.662;23.278;2023-04-01T02:47:07;71938.13;;;11.60;68.50
19759;BME280;10038;42.662;23.278;2023-04-01T02:49:34;71923.88;;;11.43;69.16
19759;BME280;10038;42.662;23.278;2023-04-01T02:52:01;71904.03;;;11.23;69.52
19759;BME280;10038;42.662;23.278;2023-04-01T02:54:28;71886.66;;;11.15;69.29
19759;BME280;10038;42.662;23.278;2023-04-01T02:56:54;71939.88;;;11.62;68.97
19759;BME280;10038;42.662;23.278;2023-04-01T02:59:23;71945.06;;;11.66;68.89
19759;BME280;10038;42.662;23.278;2023-04-01T03:01:50;71934.66;;;11.57;69.39
19759;BME280;10038;42.662;23.278;2023-04-01T03:04:16;71950.88;;;11.71;68.89
19759;BME280;10038;42.662;23.278;2023-04-01T03:06:43;71957.47;;;11.72;68.91
19759;BME280;10038;42.662;23.278;2023-04-01T03:09:10;71947.38;;;11.68;69.52
19759;BME280;10038;42.662;23.278;2023-04-01T03:11:37;71936.94;;;11.59;70.05
19759;BME280;10038;42.662;23.278;2023-04-01T03:14:04;71941.00;;;11.63;70.31
19759;BME280;10038;42.662;23.278;2023-04-01T03:16:33;71941.25;;;11.58;71.59
19759;BME280;10038;42.662;23.278;2023-04-01T03:19:00;71941.00;;;11.63;72.17
19759;BME280;10038;42.662;23.278;2023-04-01T03:21:27;71849.88;;;10.79;74.96
19759;BME280;10038;42.662;23.278;2023-04-01T03:23:54;71848.72;;;10.78;76.16
19759;BME280;10038;42.662;23.278;2023-04-01T03:26:21;71887.22;;;11.16;79.17
19759;BME280;10038;42.662;23.278;2023-04-01T03:28:48;71905.91;;;11.35;78.00
19759;BME280;10038;42.662;23.278;2023-04-01T03:31:15;71898.06;;;11.23;80.46
19759;BME280;10038;42.662;23.278;2023-04-01T03:33:44;71904.00;;;11.31;81.40
19759;BME280;10038;42.662;23.278;2023-04-01T03:36:11;71894.97;;;11.18;81.88
19759;BME280;10038;42.662;23.278;2023-04-01T03:38:38;71911.16;;;11.32;80.72
19759;BME280;10038;42.662;23.278;2023-04-01T03:41:06;71911.16;;;11.32;78.79
19759;BME280;10038;42.662;23.278;2023-04-01T03:43:33;71927.50;;;11.56;72.55
19759;BME280;10038;42.662;23.278;2023-04-01T03:46:00;71949.69;;;11.70;78.85
19759;BME280;10038;42.662;23.278;2023-04-01T03:48:27;71938.53;;;11.58;76.79
19759;BME280;10038;42.662;23.278;2023-04-01T03:50:55;71945.06;;;11.66;77.29
19759;BME280;10038;42.662;23.278;2023-04-01T03:53:22;71917.69;;;11.40;79.04
19759;BME280;10038;42.662;23.278;2023-04-01T03:55:49;71906.91;;;11.33;80.32
19759;BME280;10038;42.662;23.278;2023-04-01T03:58:16;71885.72;;;11.10;81.05
19759;BME280;10038;42.662;23.278;2023-04-01T04:00:43;71866.44;;;10.98;79.88
19759;BME280;10038;42.662;23.278;2023-04-01T04:03:10;71877.22;;;11.05;82.29
19759;BME280;10038;42.662;23.278;2023-04-01T04:05:37;71877.41;;;11.07;82.05
19759;BME280;10038;42.662;23.278;2023-04-01T04:08:06;71888.41;;;11.17;81.22
19759;BME280;10038;42.662;23.278;2023-04-01T04:10:33;71881.88;;;11.09;80.14
19759;BME280;10038;42.662;23.278;2023-04-01T04:13:00;71896.47;;;11.24;78.92
19759;BME280;10038;42.662;23.278;2023-04-01T04:15:27;71905.72;;;11.32;76.62
19759;BME280;10038;42.662;23.278;2023-04-01T04:17:54;71923.50;;;11.45;74.70
19759;BME280;10038;42.662;23.278;2023-04-01T04:20:21;71933.50;;;11.56;73.34
19759;BME280;10038;42.662;23.278;2023-04-01T04:22:48;71900.34;;;11.25;77.48
19759;BME280;10038;42.662;23.278;2023-04-01T04:25:17;71905.72;;;11.32;78.68
19759;BME280;10038;42.662;23.278;2023-04-01T04:27:43;71923.84;;;11.50;78.45
19759;BME280;10038;42.662;23.278;2023-04-01T04:30:11;71933.31;;;11.54;77.63
19759;BME280;10038;42.662;23.278;2023-04-01T04:32:38;71895.34;;;11.23;79.17
19759;BME280;10038;42.662;23.278;2023-04-01T04:35:07;71904.19;;;11.33;80.22
19759;BME280;10038;42.662;23.278;2023-04-01T04:37:34;71901.69;;;11.29;79.11
19759;BME280;10038;42.662;23.278;2023-04-01T04:40:01;71896.81;;;11.29;79.90
19759;BME280;10038;42.662;23.278;2023-04-01T04:42:29;71893.00;;;11.21;81.12
19759;BME280;10038;42.662;23.278;2023-04-01T04:44:56;71894.97;;;11.18;80.70
19759;BME280;10038;42.662;23.278;2023-04-01T04:47:23;71878.97;;;11.06;81.67
19759;BME280;10038;42.662;23.278;2023-04-01T04:49:50;71901.91;;;11.24;81.23
19759;BME280;10038;42.662;23.278;2023-04-01T04:52:17;71911.91;;;11.35;77.25
19759;BME280;10038;42.662;23.278;2023-04-01T04:54:44;71919.63;;;11.44;74.83
19759;BME280;10038;42.662;23.278;2023-04-01T04:57:11;71932.75;;;11.53;75.65
19759;BME280;10038;42.662;23.278;2023-04-01T04:59:39;71914.06;;;11.35;74.65
19759;BME280;10038;42.662;23.278;2023-04-01T05:02:06;71913.44;;;11.41;75.51
19759;BME280;10038;42.662;23.278;2023-04-01T05:04:34;71917.88;;;11.43;75.40
19759;BME280;10038;42.662;23.278;2023-04-01T05:07:02;71886.09;;;11.15;76.15
19759;BME280;10038;42.662;23.278;2023-04-01T05:09:29;71919.63;;;11.44;76.29
19759;BME280;10038;42.662;23.278;2023-04-01T05:11:57;71891.09;;;11.17;78.65
19759;BME280;10038;42.662;23.278;2023-04-01T05:14:23;71891.09;;;11.17;77.10
19759;BME280;10038;42.662;23.278;2023-04-01T05:16:52;71853.34;;;10.82;79.08
19759;BME280;10038;42.662;23.278;2023-04-01T05:19:19;71855.25;;;10.86;79.32
19759;BME280;10038;42.662;23.278;2023-04-01T05:21:46;71843.88;;;10.78;78.78
19759;BME280;10038;42.662;23.278;2023-04-01T05:24:13;71845.44;;;10.77;79.35
19759;BME280;10038;42.662;23.278;2023-04-01T05:26:40;71851.78;;;10.83;79.13
19759;BME280;10038;42.662;23.278;2023-04-01T05:29:07;71846.00;;;10.78;79.99
19759;BME280;10038;42.662;23.278;2023-04-01T05:31:34;71824.88;;;10.54;78.74
19759;BME280;10038;42.662;23.278;2023-04-01T05:34:02;71857.19;;;10.90;78.06
19759;BME280;10038;42.662;23.278;2023-04-01T05:36:29;71874.75;;;11.00;76.86
19759;BME280;10038;42.662;23.278;2023-04-01T05:38:56;71883.19;;;11.12;76.13
19759;BME280;10038;42.662;23.278;2023-04-01T05:41:23;71900.53;;;11.27;76.15
19759;BME280;10038;42.662;23.278;2023-04-01T05:43:50;71841.00;;;10.76;73.92
19759;BME280;10038;42.662;23.278;2023-04-01T05:46:17;71898.81;;;11.26;74.65
19759;BME280;10038;42.662;23.278;2023-04-01T05:48:44;71951.28;;;11.69;73.62
19759;BME280;10038;42.662;23.278;2023-04-01T05:51:15;71971.69;;;11.90;70.96
19759;BME280;10038;42.662;23.278;2023-04-01T05:53:43;71989.03;;;12.05;70.20
19759;BME280;10038;42.662;23.278;2023-04-01T05:56:10;72006.00;;;12.22;70.20
19759;BME280;10038;42.662;23.278;2023-04-01T05:58:37;71994.66;;;12.07;68.65
19759;BME280;10038;42.662;23.278;2023-04-01T06:01:06;72058.84;;;12.70;68.16
19759;BME280;10038;42.662;23.278;2023-04-01T06:03:33;72075.84;;;12.80;66.96
19759;BME280;10038;42.662;23.278;2023-04-01T06:06:01;72105.75;;;13.11;64.56
19759;BME280;10038;42.662;23.278;2023-04-01T06:08:31;72152.31;;;13.47;64.95
19759;BME280;10038;42.662;23.278;2023-04-01T06:11:04;72158.09;;;13.52;63.34
19759;BME280;10038;42.662;23.278;2023-04-01T06:13:47;72194.38;;;13.88;63.24
19759;BME280;10038;42.662;23.278;2023-04-01T06:16:27;72175.50;;;13.67;63.24
19759;BME280;10038;42.662;23.278;2023-04-01T06:19:16;72219.53;;;14.05;63.77
19759;BME280;10038;42.662;23.278;2023-04-01T06:24:57;72218.94;;;14.05;61.93
19759;BME280;10038;42.662;23.278;2023-04-01T06:27:45;72250.59;;;14.37;61.64
19759;BME280;10038;42.662;23.278;2023-04-01T06:30:30;72303.34;;;14.83;59.28
19759;BME280;10038;42.662;23.278;2023-04-01T06:33:13;72280.16;;;14.63;57.63
19759;BME280;10038;42.662;23.278;2023-04-01T06:35:54;72318.44;;;14.96;57.02
19759;BME280;10038;42.662;23.278;2023-04-01T06:38:37;72340.13;;;15.10;56.62
19759;BME280;10038;42.662;23.278;2023-04-01T06:41:21;72299.72;;;14.77;57.63
19759;BME280;10038;42.662;23.278;2023-04-01T06:43:59;72280.16;;;14.63;57.14
19759;BME280;10038;42.662;23.278;2023-04-01T06:46:38;72296.16;;;14.82;56.52
19759;BME280;10038;42.662;23.278;2023-04-01T06:49:33;72289.09;;;14.66;55.90
19759;BME280;10038;42.662;23.278;2023-04-01T06:52:10;72298.38;;;14.74;54.59
19759;BME280;10038;42.662;23.278;2023-04-01T06:54:41;72318.09;;;14.91;54.47
19759;BME280;10038;42.662;23.278;2023-04-01T06:57:20;72311.88;;;14.88;55.66
19759;BME280;10038;42.662;23.278;2023-04-01T06:59:48;72325.63;;;14.98;54.85
19759;BME280;10038;42.662;23.278;2023-04-01T07:02:22;72330.84;;;15.02;54.11
19759;BME280;10038;42.662;23.278;2023-04-01T07:04:53;72311.47;;;14.90;55.01
19759;BME280;10038;42.662;23.278;2023-04-01T07:07:29;72317.50;;;14.91;54.68
19759;BME280;10038;42.662;23.278;2023-04-01T07:09:59;72336.06;;;15.07;54.53
19759;BME280;10038;42.662;23.278;2023-04-01T07:12:36;72340.69;;;15.11;55.03
19759;BME280;10038;42.662;23.278;2023-04-01T07:15:14;72338.53;;;15.11;55.73
19759;BME280;10038;42.662;23.278;2023-04-01T07:17:45;72412.41;;;15.78;54.25
19759;BME280;10038;42.662;23.278;2023-04-01T07:20:17;72429.84;;;15.93;53.46
19759;BME280;10038;42.662;23.278;2023-04-01T07:22:48;72500.06;;;16.54;52.13
19759;BME280;10038;42.662;23.278;2023-04-01T07:25:17;72515.41;;;16.63;50.63
19759;BME280;10038;42.662;23.278;2023-04-01T07:27:47;72503.31;;;16.62;51.32
19759;BME280;10038;42.662;23.278;2023-04-01T07:30:16;72445.50;;;16.07;53.02
19759;BME280;10038;42.662;23.278;2023-04-01T07:32:47;72519.56;;;16.76;52.81
19759;BME280;10038;42.662;23.278;2023-04-01T07:35:23;72541.63;;;16.95;50.21
19759;BME280;10038;42.662;23.278;2023-04-01T07:38:02;72466.38;;;16.25;52.36
19759;BME280;10038;42.662;23.278;2023-04-01T07:40:39;72498.09;;;16.57;53.02
19759;BME280;10038;42.662;23.278;2023-04-01T07:43:33;72432.56;;;15.93;53.39
19759;BME280;10038;42.662;23.278;2023-04-01T07:46:12;72418.78;;;15.83;54.32
19759;BME280;10038;42.662;23.278;2023-04-01T07:48:46;72427.91;;;15.89;54.95
19759;BME280;10038;42.662;23.278;2023-04-01T07:51:22;72405.78;;;15.77;55.81
19759;BME280;10038;42.662;23.278;2023-04-01T07:53:58;72414.41;;;15.75;55.72
19759;BME280;10038;42.662;23.278;2023-04-01T07:56:34;72376.44;;;15.47;56.31
19759;BME280;10038;42.662;23.278;2023-04-01T07:59:11;72367.56;;;15.36;57.28
19759;BME280;10038;42.662;23.278;2023-04-01T08:01:49;72349.81;;;15.16;57.69
19759;BME280;10038;42.662;23.278;2023-04-01T08:04:30;72392.69;;;15.61;57.49
19759;BME280;10038;42.662;23.278;2023-04-01T08:07:05;72386.88;;;15.56;57.24
19759;BME280;10038;42.662;23.278;2023-04-01T08:09:40;72413.31;;;15.83;55.69
19759;BME280;10038;42.662;23.278;2023-04-01T08:12:20;72496.34;;;16.56;55.67
19759;BME280;10038;42.662;23.278;2023-04-01T08:14:58;72506.22;;;16.64;53.58
19759;BME280;10038;42.662;23.278;2023-04-01T08:17:33;72559.31;;;17.05;52.75
19759;BME280;10038;42.662;23.278;2023-04-01T08:20:18;72579.63;;;17.23;52.84
19759;BME280;10038;42.662;23.278;2023-04-01T08:22:53;72581.13;;;17.29;51.63
19759;BME280;10038;42.662;23.278;2023-04-01T08:25:26;72565.13;;;17.10;51.73
19759;BME280;10038;42.662;23.278;2023-04-01T08:27:57;72607.53;;;17.47;52.20
19759;BME280;10038;42.662;23.278;2023-04-01T08:30:35;72813.72;;;19.31;47.89
19759;BME280;10038;42.662;23.278;2023-04-01T08:33:11;72997.69;;;20.90;43.39
19759;BME280;10038;42.662;23.278;2023-04-01T08:35:46;73206.41;;;22.71;39.43
19759;BME280;10038;42.662;23.278;2023-04-01T08:38:18;73435.53;;;24.74;35.41
19759;BME280;10038;42.662;23.278;2023-04-01T08:40:58;73604.47;;;26.19;32.68
19759;BME280;10038;42.662;23.278;2023-04-01T08:43:59;73769.44;;;27.62;30.47
19759;BME280;10038;42.662;23.278;2023-04-01T08:49:55;73843.19;;;28.25;28.45
19759;BME280;10038;42.662;23.278;2023-04-01T08:52:31;73779.97;;;27.71;28.74
19759;BME280;10038;42.662;23.278;2023-04-01T08:55:36;73730.06;;;27.25;30.06
19759;BME280;10038;42.662;23.278;2023-04-01T08:58:54;73290.44;;;23.43;35.02
19759;BME280;10038;42.662;23.278;2023-04-01T09:01:39;73054.38;;;21.42;38.08
19759;BME280;10038;42.662;23.278;2023-04-01T09:04:33;72903.91;;;20.09;42.06
19759;BME280;10038;42.662;23.278;2023-04-01T09:07:17;72863.78;;;19.74;43.27
19759;BME280;10038;42.662;23.278;2023-04-01T09:10:18;72920.91;;;20.17;42.55
19759;BME280;10038;42.662;23.278;2023-04-01T09:12:59;72901.84;;;20.02;41.68
19759;BME280;10038;42.662;23.278;2023-04-01T09:15:53;72873.34;;;19.78;41.57
19759;BME280;10038;42.662;23.278;2023-04-01T09:18:46;72860.28;;;19.71;42.46
19759;BME280;10038;42.662;23.278;2023-04-01T09:21:27;72857.94;;;19.69;41.64
19759;BME280;10038;42.662;23.278;2023-04-01T09:24:19;72795.06;;;19.15;43.05
19759;BME280;10038;42.662;23.278;2023-04-01T09:27:04;72799.75;;;19.19;43.55
19759;BME280;10038;42.662;23.278;2023-04-01T09:29:54;72800.56;;;19.15;43.90
19759;BME280;10038;42.662;23.278;2023-04-01T09:32:46;72879.16;;;19.83;42.14
19759;BME280;10038;42.662;23.278;2023-04-01T09:35:39;73027.41;;;21.16;39.69
19759;BME280;10038;42.662;23.278;2023-04-01T09:38:21;73039.06;;;21.26;38.70
19759;BME280;10038;42.662;23.278;2023-04-01T09:40:55;73072.28;;;21.55;34.50
19759;BME280;10038;42.662;23.278;2023-04-01T09:43:26;73187.75;;;22.55;32.01
19759;BME280;10038;42.662;23.278;2023-04-01T09:49:13;73522.47;;;25.46;27.48
19759;BME280;10038;42.662;23.278;2023-04-01T09:51:56;73553.00;;;25.75;27.06
19759;BME280;10038;42.662;23.278;2023-04-01T09:54:36;73777.03;;;27.68;25.18
19759;BME280;10038;42.662;23.278;2023-04-01T10:00:53;73631.66;;;26.38;25.88
19759;BME280;10038;42.662;23.278;2023-04-01T10:03:48;73534.88;;;25.59;26.24
19759;BME280;10038;42.662;23.278;2023-04-01T10:13:06;73175.66;;;22.47;33.05
19759;BME280;10038;42.662;23.278;2023-04-01T10:19:10;73122.56;;;22.01;34.43
19759;BME280;10038;42.662;23.278;2023-04-01T10:25:15;73462.13;;;24.92;27.61
19759;BME280;10038;42.662;23.278;2023-04-01T10:28:10;73369.56;;;24.17;27.89
19759;BME280;10038;42.662;23.278;2023-04-01T10:36:54;73191.81;;;22.58;33.27
19759;BME280;10038;42.662;23.278;2023-04-01T10:39:38;73233.97;;;22.97;33.61
19759;BME280;10038;42.662;23.278;2023-04-01T10:42:44;73185.38;;;22.53;33.68
19759;BME280;10038;42.662;23.278;2023-04-01T10:45:39;73163.97;;;22.37;35.67
19759;BME280;10038;42.662;23.278;2023-04-01T10:48:21;73077.69;;;21.62;34.87
19759;BME280;10038;42.662;23.278;2023-04-01T10:51:15;73053.06;;;21.38;34.88
19759;BME280;10038;42.662;23.278;2023-04-01T10:54:14;73124.75;;;22.00;32.62
19759;BME280;10038;42.662;23.278;2023-04-01T10:57:05;73048.41;;;21.34;32.55
19759;BME280;10038;42.662;23.278;2023-04-01T11:00:25;73040.81;;;21.28;32.68
19759;BME280;10038;42.662;23.278;2023-04-01T11:09:41;72983.13;;;20.78;33.27
19759;BME280;10038;42.662;23.278;2023-04-01T11:12:50;73053.66;;;21.39;33.28
19759;BME280;10038;42.662;23.278;2023-04-01T11:22:14;72839.00;;;19.48;36.55
19759;BME280;10038;42.662;23.278;2023-04-01T11:28:11;72805.56;;;19.24;41.17
19759;BME280;10038;42.662;23.278;2023-04-01T11:30:56;72763.94;;;18.83;44.26
19759;BME280;10038;42.662;23.278;2023-04-01T11:33:31;72671.22;;;18.07;48.15
19759;BME280;10038;42.662;23.278;2023-04-01T11:36:15;72616.84;;;17.55;49.52
19759;BME280;10038;42.662;23.278;2023-04-01T11:39:00;72605.13;;;17.52;54.06
19759;BME280;10038;42.662;23.278;2023-04-01T11:41:36;72489.03;;;16.44;59.69
19759;BME280;10038;42.662;23.278;2023-04-01T11:44:16;72415.16;;;15.78;63.07
19759;BME280;10038;42.662;23.278;2023-04-01T11:46:52;72352.63;;;15.26;69.41
19759;BME280;10038;42.662;23.278;2023-04-01T11:49:59;72154.78;;;13.51;86.64
19759;BME280;10038;42.662;23.278;2023-04-01T11:52:45;72061.22;;;12.65;93.23
19759;BME280;10038;42.662;23.278;2023-04-01T11:55:32;72037.63;;;12.47;99.14
19759;BME280;10038;42.662;23.278;2023-04-01T12:01:14;72033.03;;;12.43;100.00
19759;BME280;10038;42.662;23.278;2023-04-01T12:03:56;72021.47;;;12.33;100.00
19759;BME280;10038;42.662;23.278;2023-04-01T12:06:32;72033.03;;;12.43;100.00
19759;BME280;10038;42.662;23.278;2023-04-01T12:09:10;72045.75;;;12.54;100.00
19759;BME280;10038;42.662;23.278;2023-04-01T12:11:48;72065.44;;;12.71;100.00
19759;BME280;10038;42.662;23.278;2023-04-01T12:14:27;72144.44;;;13.35;100.00
19759;BME280;10038;42.662;23.278;2023-04-01T12:17:03;72261.66;;;14.40;98.03
19759;BME280;10038;42.662;23.278;2023-04-01T12:19:41;72361.34;;;15.33;94.15
19759;BME280;10038;42.662;23.278;2023-04-01T12:22:32;72386.13;;;15.53;90.18
19759;BME280;10038;42.662;23.278;2023-04-01T12:25:16;72378.41;;;15.44;89.05
19759;BME280;10038;42.662;23.278;2023-04-01T12:27:57;72398.91;;;15.64;90.37
19759;BME280;10038;42.662;23.278;2023-04-01T12:30:36;72305.16;;;14.77;91.46
19759;BME280;10038;42.662;23.278;2023-04-01T12:33:28;72220.28;;;14.08;89.60
19759;BME280;10038;42.662;23.278;2023-04-01T12:36:11;72206.78;;;13.94;91.89
19759;BME280;10038;42.662;23.278;2023-04-01T12:38:51;72233.09;;;14.12;92.21
19759;BME280;10038;42.662;23.278;2023-04-01T12:41:29;72168.13;;;13.63;92.81
19759;BME280;10038;42.662;23.278;2023-04-01T12:44:20;72188.56;;;13.83;93.94
19759;BME280;10038;42.662;23.278;2023-04-01T12:47:06;72151.16;;;13.46;92.81
19759;BME280;10038;42.662;23.278;2023-04-01T12:52:48;72130.72;;;13.26;93.42
19759;BME280;10038;42.662;23.278;2023-04-01T12:55:30;72101.31;;;13.02;92.73
19759;BME280;10038;42.662;23.278;2023-04-01T12:58:32;72100.19;;;13.01;91.33
19759;BME280;10038;42.662;23.278;2023-04-01T13:01:23;72106.56;;;13.07;92.42
19759;BME280;10038;42.662;23.278;2023-04-01T13:07:21;72119.88;;;13.19;89.90
19759;BME280;10038;42.662;23.278;2023-04-01T13:09:54;72127.41;;;13.25;88.82
19759;BME280;10038;42.662;23.278;2023-04-01T13:12:40;72122.19;;;13.21;88.86
19759;BME280;10038;42.662;23.278;2023-04-01T13:15:35;72190.53;;;13.80;90.20
19759;BME280;10038;42.662;23.278;2023-04-01T13:18:15;72285.78;;;14.65;85.42
19759;BME280;10038;42.662;23.278;2023-04-01T13:20:51;72323.63;;;15.01;82.37
19759;BME280;10038;42.662;23.278;2023-04-01T13:23:34;72408.94;;;15.75;79.95
19759;BME280;10038;42.662;23.278;2023-04-01T13:26:13;72457.09;;;16.17;75.49
19759;BME280;10038;42.662;23.278;2023-04-01T13:28:47;72389.63;;;15.56;74.59
19759;BME280;10038;42.662;23.278;2023-04-01T13:31:27;72347.44;;;15.21;73.69
19759;BME280;10038;42.662;23.278;2023-04-01T13:34:04;72306.47;;;14.81;72.70
19759;BME280;10038;42.662;23.278;2023-04-01T13:36:48;72316.19;;;14.87;73.16
19759;BME280;10038;42.662;23.278;2023-04-01T13:39:29;72293.56;;;14.67;72.35
19759;BME280;10038;42.662;23.278;2023-04-01T13:42:13;72241.88;;;14.30;73.67
19759;BME280;10038;42.662;23.278;2023-04-01T13:44:46;72271.13;;;14.50;71.35
19759;BME280;10038;42.662;23.278;2023-04-01T13:47:59;72462.16;;;16.19;63.34
19759;BME280;10038;42.662;23.278;2023-04-01T13:50:42;72569.53;;;17.19;58.15
19759;BME280;10038;42.662;23.278;2023-04-01T13:53:35;72560.78;;;17.11;59.27
19759;BME280;10038;42.662;23.278;2023-04-01T13:56:23;72645.91;;;17.81;55.26
19759;BME280;10038;42.662;23.278;2023-04-01T13:59:26;72665.97;;;18.03;54.53
19759;BME280;10038;42.662;23.278;2023-04-01T14:02:07;72650.28;;;17.89;55.68
19759;BME280;10038;42.662;23.278;2023-04-01T14:04:57;72672.06;;;18.03;55.28
19759;BME280;10038;42.662;23.278;2023-04-01T14:07:39;72614.91;;;17.51;56.04
19759;BME280;10038;42.662;23.278;2023-04-01T14:10:48;72557.25;;;16.99;56.63
19759;BME280;10038;42.662;23.278;2023-04-01T14:13:34;72465.81;;;16.24;59.59
19759;BME280;10038;42.662;23.278;2023-04-01T14:19:06;72502.97;;;16.57;56.48
19759;BME280;10038;42.662;23.278;2023-04-01T14:21:38;72558.72;;;17.05;55.55
19759;BME280;10038;42.662;23.278;2023-04-01T14:24:29;72636.28;;;17.67;53.69
19759;BME280;10038;42.662;23.278;2023-04-01T14:30:10;72468.69;;;16.27;57.26
19759;BME280;10038;42.662;23.278;2023-04-01T14:32:47;72532.44;;;16.80;56.95
19759;BME280;10038;42.662;23.278;2023-04-01T14:35:31;72637.50;;;17.78;53.16
19759;BME280;10038;42.662;23.278;2023-04-01T14:38:26;72663.34;;;17.96;50.39
19759;BME280;10038;42.662;23.278;2023-04-01T14:40:59;72696.72;;;18.20;49.04